Time;durP1;ratioP1;P1;durP2;ratioP2;P2;SDS_P1;SDS_P2;PMS_P1;PMS_P2;Temp;Humidity;BMP_temperature;BMP_pressure;BME280_temperature;BME280_humidity;BME280_pressure;Samples;Min_cycle;Max_cycle;Signal;HPM_P1;HPM_P2
2022/12/18 04:02:48;;;;;;;;;;;-5.80;99.90;;;;;;5076754;23;19926;-69
2022/12/18 04:05:23;;;;;;;;;;;-5.80;99.90;;;;;;4936451;29;19931;-69
2022/12/18 04:07:51;;;;;;;;;;;-5.80;99.90;;;;;;4937599;29;19941;-70
2022/12/18 04:10:19;;;;;;;;;;;-5.80;99.90;;;;;;4935682;29;19930;-69
2022/12/18 04:12:46;;;;;;;;;;;-5.80;99.90;;;;;;4920324;29;19927;-70
2022/12/18 04:15:14;;;;;;;;;;;-5.80;99.90;;;;;;4918157;29;19935;-67
2022/12/18 04:17:47;;;;;;;;;;;-5.70;99.90;;;;;;4916278;29;19927;-69
2022/12/18 04:20:15;;;;;;;;;;;-5.80;99.90;;;;;;4913545;29;19979;-69
2022/12/18 04:22:44;;;;;;;;;;;-5.90;99.90;;;;;;4916629;29;19978;-68
2022/12/18 04:25:11;;;;;;;;;;;-5.80;99.90;;;;;;4921832;29;20298;-68
2022/12/18 04:27:42;;;;;;;;;;;-5.80;99.90;;;;;;4918528;29;19931;-70
2022/12/18 04:30:09;;;;;;;;;;;-5.80;99.90;;;;;;4917054;29;19938;-69
2022/12/18 04:32:36;;;;;;;;;;;-5.90;99.90;;;;;;4919949;29;19927;-68
2022/12/18 04:35:04;;;;;;;;;;;-6.00;99.90;;;;;;4920528;29;19927;-69
2022/12/18 04:37:33;;;;;;;;;;;-6.00;99.90;;;;;;4920806;29;19933;-68
2022/12/18 04:40:00;;;;;;;;;;;-6.00;99.90;;;;;;4921049;29;19927;-69
2022/12/18 04:42:34;;;;;;;;;;;-6.10;99.90;;;;;;4915909;29;19927;-69
2022/12/18 04:45:00;;;;;;;;;;;-6.10;99.90;;;;;;4921601;29;19978;-70
2022/12/18 04:47:27;;;;;;;;;;;-6.20;99.90;;;;;;4926221;29;19969;-69
2022/12/18 04:49:54;;;;;;;;;;;-6.20;99.90;;;;;;4922135;29;19928;-70
2022/12/18 04:52:20;;;;;;;;;;;-6.20;99.90;;;;;;4919513;29;20018;-69
2022/12/18 04:54:48;;;;;;;;;;;-6.20;99.90;;;;;;4926619;29;19985;-69
2022/12/18 04:57:15;;;;;;;;;;;-6.10;99.90;;;;;;4930036;29;20034;-69
2022/12/18 04:59:41;;;;;;;;;;;-6.10;99.90;;;;;;4927167;29;19970;-69
2022/12/18 05:02:08;;;;;;;;;;;-6.00;99.90;;;;;;4923159;29;19951;-69
2022/12/18 05:04:35;;;;;;;;;;;-6.10;99.90;;;;;;4928560;29;20021;-70
2022/12/18 05:07:01;;;;;;;;;;;-6.20;99.90;;;;;;4928853;29;20030;-69
2022/12/18 05:09:28;;;;;;;;;;;-6.20;99.90;;;;;;4928182;29;19954;-69
2022/12/18 05:11:56;;;;;;;;;;;-6.10;99.90;;;;;;4928110;29;20363;-70
2022/12/18 05:14:22;;;;;;;;;;;-6.10;99.90;;;;;;4930063;29;20029;-69
2022/12/18 05:16:49;;;;;;;;;;;-6.00;99.90;;;;;;4934564;29;20365;-69
2022/12/18 05:19:16;;;;;;;;;;;-6.10;99.90;;;;;;4923103;29;19934;-69
2022/12/18 05:21:42;;;;;;;;;;;-6.00;99.90;;;;;;4930520;29;19980;-69
2022/12/18 05:24:09;;;;;;;;;;;-6.00;99.90;;;;;;4927987;29;19955;-68
2022/12/18 05:26:36;;;;;;;;;;;-6.00;99.90;;;;;;4924996;29;19975;-70
2022/12/18 05:29:04;;;;;;;;;;;-5.80;99.90;;;;;;4929326;29;19977;-69
2022/12/18 05:31:30;;;;;;;;;;;-5.80;99.90;;;;;;4925997;29;19931;-71
2022/12/18 05:33:57;;;;;;;;;;;-5.80;99.90;;;;;;4927924;29;20013;-69
2022/12/18 05:36:23;;;;;;;;;;;-5.80;99.90;;;;;;4927497;29;19962;-69
2022/12/18 05:38:50;;;;;;;;;;;-5.90;99.90;;;;;;4926759;29;19934;-68
2022/12/18 05:41:17;;;;;;;;;;;-5.90;99.90;;;;;;4931261;29;19992;-70
2022/12/18 05:43:44;;;;;;;;;;;-5.90;99.90;;;;;;4925065;29;20015;-69
2022/12/18 05:46:13;;;;;;;;;;;-5.90;99.90;;;;;;4931132;29;20033;-70
2022/12/18 05:48:40;;;;;;;;;;;-5.90;99.90;;;;;;4924152;29;20029;-68
2022/12/18 05:51:07;;;;;;;;;;;-6.00;99.90;;;;;;4926724;29;20014;-68
2022/12/18 05:53:34;;;;;;;;;;;-6.00;99.90;;;;;;4928828;29;19966;-69
2022/12/18 05:56:01;;;;;;;;;;;-6.00;99.90;;;;;;4929158;29;19926;-69
2022/12/18 05:58:28;;;;;;;;;;;-6.00;99.90;;;;;;4926236;29;19970;-69
2022/12/18 06:00:54;;;;;;;;;;;-6.00;99.90;;;;;;4922277;29;19984;-71
2022/12/18 06:03:22;;;;;;;;;;;-6.10;99.90;;;;;;4919390;29;20025;-68
2022/12/18 06:05:49;;;;;;;;;;;-6.10;99.90;;;;;;4922643;29;19927;-70
2022/12/18 06:08:15;;;;;;;;;;;-6.10;99.90;;;;;;4928102;29;20444;-68
2022/12/18 06:10:42;;;;;;;;;;;-6.10;99.90;;;;;;4923829;29;19983;-69
2022/12/18 06:13:09;;;;;;;;;;;-6.00;99.90;;;;;;4924589;29;20362;-69
2022/12/18 06:15:37;;;;;;;;;;;-6.00;99.90;;;;;;4927056;29;19969;-68
2022/12/18 06:18:04;;;;;;;;;;;-6.00;99.90;;;;;;4927446;29;20369;-68
2022/12/18 06:20:32;;;;;;;;;;;-6.00;99.90;;;;;;4926922;29;20025;-68
2022/12/18 06:22:58;;;;;;;;;;;-6.10;99.90;;;;;;4921009;29;20021;-68
2022/12/18 06:25:25;;;;;;;;;;;-6.20;99.90;;;;;;4923092;29;19986;-69
2022/12/18 06:27:52;;;;;;;;;;;-6.20;99.90;;;;;;4919950;29;19927;-69
2022/12/18 06:30:18;;;;;;;;;;;-6.30;99.90;;;;;;4919731;29;19934;-69
2022/12/18 06:32:45;;;;;;;;;;;-6.30;99.90;;;;;;4923267;29;19931;-68
2022/12/18 06:35:12;;;;;;;;;;;-6.30;99.90;;;;;;4925858;29;19927;-70
2022/12/18 06:37:40;;;;;;;;;;;-6.20;99.90;;;;;;4921931;29;20302;-69
2022/12/18 06:40:07;;;;;;;;;;;-6.10;99.90;;;;;;4922783;29;19927;-69
2022/12/18 06:42:34;;;;;;;;;;;-6.00;99.90;;;;;;4912208;29;19979;-69
2022/12/18 06:45:01;;;;;;;;;;;-6.00;99.90;;;;;;4914272;29;19935;-69
2022/12/18 06:47:27;;;;;;;;;;;-5.90;99.90;;;;;;4911151;29;20443;-69
2022/12/18 06:49:54;;;;;;;;;;;-5.90;99.90;;;;;;4911899;29;20295;-68
2022/12/18 06:52:21;;;;;;;;;;;-5.80;99.90;;;;;;4914734;29;19931;-70
2022/12/18 06:54:49;;;;;;;;;;;-5.70;99.90;;;;;;4910881;29;19927;-69
2022/12/18 06:57:16;;;;;;;;;;;-5.70;99.90;;;;;;4917557;29;19927;-69
2022/12/18 06:59:43;;;;;;;;;;;-5.60;99.90;;;;;;4926353;29;19931;-69
2022/12/18 07:02:11;;;;;;;;;;;-5.50;99.90;;;;;;4918230;29;19935;-69
2022/12/18 07:04:38;;;;;;;;;;;-5.50;99.90;;;;;;4915497;29;19983;-70
2022/12/18 07:07:05;;;;;;;;;;;-5.50;99.90;;;;;;4923933;29;19927;-69
2022/12/18 07:09:31;;;;;;;;;;;-5.60;99.90;;;;;;4916267;29;19927;-70
2022/12/18 07:12:00;;;;;;;;;;;-5.50;99.90;;;;;;4916032;29;20523;-69
2022/12/18 07:14:26;;;;;;;;;;;-5.60;99.90;;;;;;4915276;29;20350;-69
2022/12/18 07:16:53;;;;;;;;;;;-5.60;99.90;;;;;;4921335;29;20361;-69
2022/12/18 07:19:20;;;;;;;;;;;-5.40;99.90;;;;;;4921319;29;19926;-70
2022/12/18 07:21:47;;;;;;;;;;;-5.40;99.90;;;;;;4919850;29;19943;-69
2022/12/18 07:24:14;;;;;;;;;;;-5.40;99.90;;;;;;4915354;29;20022;-69
2022/12/18 07:26:40;;;;;;;;;;;-5.30;99.90;;;;;;4917770;29;19939;-68
2022/12/18 07:29:09;;;;;;;;;;;-5.30;99.90;;;;;;4919751;29;19934;-69
2022/12/18 07:31:35;;;;;;;;;;;-5.40;99.90;;;;;;4921098;29;20367;-69
2022/12/18 07:34:02;;;;;;;;;;;-5.40;99.90;;;;;;4919908;29;19928;-69
2022/12/18 07:36:29;;;;;;;;;;;-5.40;99.90;;;;;;4921159;29;19991;-69
2022/12/18 07:38:56;;;;;;;;;;;-5.40;99.90;;;;;;4924157;29;19930;-72
2022/12/18 07:41:22;;;;;;;;;;;-5.30;99.90;;;;;;4919683;29;19975;-69
2022/12/18 07:43:49;;;;;;;;;;;-5.30;99.90;;;;;;4924207;29;19927;-69
2022/12/18 07:46:17;;;;;;;;;;;-5.20;99.90;;;;;;4923931;29;19942;-69
2022/12/18 07:48:45;;;;;;;;;;;-5.20;99.90;;;;;;4923807;29;19927;-68
2022/12/18 07:51:12;;;;;;;;;;;-5.10;99.90;;;;;;4922108;29;19931;-70
2022/12/18 07:53:39;;;;;;;;;;;-5.10;99.90;;;;;;4922359;29;19927;-69
2022/12/18 07:56:06;;;;;;;;;;;-5.10;99.90;;;;;;4922862;29;19975;-70
2022/12/18 07:58:34;;;;;;;;;;;-5.00;99.90;;;;;;4922915;29;19927;-69
2022/12/18 08:01:03;;;;;;;;;;;-4.90;99.90;;;;;;4923585;29;19982;-69
2022/12/18 08:03:32;;;;;;;;;;;-4.90;99.90;;;;;;4925164;29;19927;-70
2022/12/18 08:05:59;;;;;;;;;;;-4.80;99.90;;;;;;4920910;29;19970;-69
2022/12/18 08:08:26;;;;;;;;;;;-4.70;99.90;;;;;;4925566;29;19926;-68
2022/12/18 08:10:53;;;;;;;;;;;-4.70;99.90;;;;;;4921123;29;19930;-70
2022/12/18 08:13:19;;;;;;;;;;;-4.60;99.90;;;;;;4919289;29;19930;-69
2022/12/18 08:15:46;;;;;;;;;;;-4.60;99.90;;;;;;4924560;29;19946;-70
2022/12/18 08:18:13;;;;;;;;;;;-4.50;99.90;;;;;;4922487;29;19981;-69
2022/12/18 08:20:42;;;;;;;;;;;-4.50;99.90;;;;;;4917692;29;19927;-69
2022/12/18 08:23:09;;;;;;;;;;;-4.50;99.90;;;;;;4924252;29;19927;-71
2022/12/18 08:25:36;;;;;;;;;;;-4.40;99.90;;;;;;4911822;29;19928;-69
2022/12/18 08:28:02;;;;;;;;;;;-4.40;99.90;;;;;;4918520;29;19927;-69
2022/12/18 08:30:29;;;;;;;;;;;-4.40;99.90;;;;;;4915636;29;19975;-70
2022/12/18 08:32:56;;;;;;;;;;;-4.40;99.90;;;;;;4920024;29;20288;-70
2022/12/18 08:35:23;;;;;;;;;;;-4.30;99.90;;;;;;4920251;29;20034;-76
2022/12/18 08:37:51;;;;;;;;;;;-4.30;99.90;;;;;;4917677;29;19927;-70
2022/12/18 08:40:18;;;;;;;;;;;-4.30;99.90;;;;;;4922019;29;19935;-69
2022/12/18 08:45:29;;;;;;;;;;;-4.10;99.90;;;;;;4918560;29;19923;-69
2022/12/18 08:47:56;;;;;;;;;;;-4.00;99.90;;;;;;4918440;29;19927;-69
2022/12/18 08:50:22;;;;;;;;;;;-3.80;99.90;;;;;;4913316;29;19931;-70
2022/12/18 08:52:51;;;;;;;;;;;-3.70;99.90;;;;;;4920421;29;19926;-70
2022/12/18 08:55:17;;;;;;;;;;;-3.60;99.90;;;;;;4920949;29;19934;-70
2022/12/18 08:57:48;;;;;;;;;;;-3.50;99.90;;;;;;4916614;29;19926;-69
2022/12/18 09:00:15;;;;;;;;;;;-3.40;99.90;;;;;;4918423;29;19939;-70
2022/12/18 09:02:42;;;;;;;;;;;-3.30;99.90;;;;;;4918515;29;19927;-70
2022/12/18 09:05:09;;;;;;;;;;;-3.30;99.90;;;;;;4916250;29;20062;-69
2022/12/18 09:07:36;;;;;;;;;;;-3.30;99.90;;;;;;4910029;29;19985;-69
2022/12/18 09:10:05;;;;;;;;;;;-3.40;99.90;;;;;;4918504;29;20298;-70
2022/12/18 09:12:32;;;;;;;;;;;-3.30;99.90;;;;;;4919691;29;19931;-72
2022/12/18 09:14:58;;;;;;;;;;;-3.30;99.90;;;;;;4922279;29;19927;-69
2022/12/18 09:17:26;;;;;;;;;;;-3.10;99.90;;;;;;4916207;29;19934;-69
2022/12/18 09:19:52;;;;;;;;;;;-3.00;99.90;;;;;;4937306;29;19973;-70
2022/12/18 09:22:19;;;;;;;;;;;-2.80;99.90;;;;;;4914698;29;19934;-69
2022/12/18 09:24:46;;;;;;;;;;;-2.60;99.90;;;;;;4918362;29;19931;-70
2022/12/18 09:27:14;;;;;;;;;;;-2.60;99.90;;;;;;4922581;29;19933;-69
2022/12/18 09:29:41;;;;;;;;;;;-2.50;99.90;;;;;;4919347;29;19931;-69
2022/12/18 09:32:08;;;;;;;;;;;-2.40;99.90;;;;;;4921438;29;19934;-69
2022/12/18 09:34:35;;;;;;;;;;;-2.40;99.90;;;;;;4923896;29;19935;-69
2022/12/18 09:37:02;;;;;;;;;;;-2.40;99.90;;;;;;4921389;29;19943;-69
2022/12/18 09:39:28;;;;;;;;;;;-2.30;99.90;;;;;;4923761;29;19934;-69
2022/12/18 09:41:56;;;;;;;;;;;-2.30;99.90;;;;;;4929500;29;20052;-70
2022/12/18 09:44:26;;;;;;;;;;;-2.20;99.90;;;;;;4923995;29;20029;-69
2022/12/18 09:46:59;;;;;;;;;;;-2.00;99.90;;;;;;4926207;29;20386;-70
2022/12/18 09:49:28;;;;;;;;;;;-1.80;99.90;;;;;;4918631;29;19931;-70
2022/12/18 09:51:56;;;;;;;;;;;-1.70;99.90;;;;;;4919969;29;19931;-70
2022/12/18 09:54:26;;;;;;;;;;;-1.60;99.90;;;;;;4926421;29;19927;-69
2022/12/18 09:56:53;;;;;;;;;;;-1.50;99.90;;;;;;4921126;29;19927;-68
2022/12/18 09:59:24;;;;;;;;;;;-1.40;99.90;;;;;;4920574;29;19931;-69
2022/12/18 10:01:52;;;;;;;;;;;-1.20;99.90;;;;;;4923145;29;19974;-71
2022/12/18 10:04:19;;;;;;;;;;;-1.00;99.90;;;;;;4923901;29;19934;-70
2022/12/18 10:06:48;;;;;;;;;;;-0.90;99.90;;;;;;4921329;29;19979;-69
2022/12/18 10:09:20;;;;;;;;;;;-0.60;99.90;;;;;;4923330;29;19991;-69
2022/12/18 10:11:50;;;;;;;;;;;-0.40;99.90;;;;;;4919632;29;19935;-72
2022/12/18 10:14:19;;;;;;;;;;;-0.30;99.90;;;;;;4925581;29;19927;-71
2022/12/18 10:16:53;;;;;;;;;;;0.00;99.90;;;;;;4921670;29;19927;-71
2022/12/18 10:19:31;;;;;;;;;;;0.20;99.90;;;;;;4912879;29;20283;-71
2022/12/18 10:22:02;;;;;;;;;;;0.20;99.90;;;;;;4921796;29;19927;-70
2022/12/18 10:24:33;;;;;;;;;;;0.80;99.90;;;;;;4929901;29;19927;-70
2022/12/18 10:27:08;;;;;;;;;;;1.40;99.90;;;;;;4920823;29;19931;-71
2022/12/18 10:29:35;;;;;;;;;;;1.80;99.90;;;;;;4923668;29;20369;-71
2022/12/18 10:32:02;;;;;;;;;;;2.40;99.90;;;;;;4920933;29;19931;-69
2022/12/18 10:34:30;;;;;;;;;;;2.20;99.90;;;;;;4925321;29;19933;-70
2022/12/18 10:36:57;;;;;;;;;;;2.50;99.90;;;;;;4915441;29;19936;-70
2022/12/18 10:39:25;;;;;;;;;;;2.40;99.90;;;;;;4922256;29;19931;-69
2022/12/18 10:41:52;;;;;;;;;;;2.00;99.90;;;;;;4918393;29;19938;-72
2022/12/18 10:44:20;;;;;;;;;;;1.90;99.90;;;;;;4919572;29;19927;-72
2022/12/18 10:46:48;;;;;;;;;;;1.80;99.90;;;;;;4921845;29;20398;-70
2022/12/18 10:49:20;;;;;;;;;;;1.60;99.90;;;;;;4923580;29;19931;-70
2022/12/18 10:51:48;;;;;;;;;;;1.70;99.90;;;;;;4918684;29;19967;-70
2022/12/18 10:54:16;;;;;;;;;;;1.70;99.90;;;;;;4913443;29;19935;-71
2022/12/18 10:56:43;;;;;;;;;;;1.80;99.90;;;;;;4920783;29;19931;-70
2022/12/18 10:59:10;;;;;;;;;;;2.00;99.90;;;;;;4919660;29;19932;-71
2022/12/18 11:01:46;;;;;;;;;;;2.00;99.90;;;;;;4923925;29;19926;-71
2022/12/18 11:04:17;;;;;;;;;;;1.80;99.90;;;;;;4914095;29;19927;-69
2022/12/18 11:06:55;;;;;;;;;;;1.70;99.90;;;;;;4918980;29;19927;-69
2022/12/18 11:09:23;;;;;;;;;;;1.40;99.90;;;;;;4915523;29;19994;-69
2022/12/18 11:11:52;;;;;;;;;;;1.30;99.90;;;;;;4922528;29;20409;-68
2022/12/18 11:14:20;;;;;;;;;;;0.90;99.90;;;;;;4922632;29;19984;-70
2022/12/18 11:16:48;;;;;;;;;;;0.80;99.90;;;;;;4917823;29;19974;-69
2022/12/18 11:19:22;;;;;;;;;;;0.80;99.90;;;;;;4917215;29;19934;-69
2022/12/18 11:21:49;;;;;;;;;;;0.70;99.90;;;;;;4923969;29;20309;-69
2022/12/18 11:24:23;;;;;;;;;;;0.60;99.90;;;;;;4922485;29;19926;-69
2022/12/18 11:26:50;;;;;;;;;;;0.60;99.90;;;;;;4919329;29;19931;-69
2022/12/18 11:29:18;;;;;;;;;;;0.50;99.90;;;;;;4920961;29;20377;-69
2022/12/18 11:31:45;;;;;;;;;;;0.50;99.90;;;;;;4920211;29;19931;-69
2022/12/18 11:34:14;;;;;;;;;;;0.40;99.90;;;;;;4910163;29;19931;-69
2022/12/18 11:36:43;;;;;;;;;;;0.30;99.90;;;;;;4919125;29;19935;-69
2022/12/18 11:39:12;;;;;;;;;;;0.30;99.90;;;;;;4919183;29;19935;-70
2022/12/18 11:44:31;;;;;;;;;;;0.20;99.90;;;;;;4912994;29;19962;-69
2022/12/18 11:47:01;;;;;;;;;;;0.20;99.90;;;;;;4917369;29;19962;-68
2022/12/18 11:49:33;;;;;;;;;;;0.20;99.90;;;;;;4921828;29;20426;-69
2022/12/18 11:52:02;;;;;;;;;;;0.10;99.90;;;;;;4917707;29;19979;-68
2022/12/18 11:54:29;;;;;;;;;;;0.00;99.90;;;;;;4921854;29;19931;-69
2022/12/18 11:57:04;;;;;;;;;;;0.00;99.90;;;;;;4917537;29;19927;-69
2022/12/18 11:59:34;;;;;;;;;;;0.10;99.90;;;;;;4914980;29;20453;-69
2022/12/18 12:02:12;;;;;;;;;;;0.10;99.90;;;;;;4919489;29;20366;-70
2022/12/18 12:04:44;;;;;;;;;;;0.10;99.90;;;;;;4921199;29;19934;-70
2022/12/18 12:07:16;;;;;;;;;;;0.10;99.90;;;;;;4921930;29;19991;-68
2022/12/18 12:09:48;;;;;;;;;;;0.10;99.90;;;;;;4921714;29;19937;-69
2022/12/18 12:12:25;;;;;;;;;;;0.10;99.90;;;;;;4910368;29;19935;-69
2022/12/18 12:14:55;;;;;;;;;;;0.00;99.90;;;;;;4921282;29;19930;-70
2022/12/18 12:17:26;;;;;;;;;;;0.00;99.90;;;;;;4910813;29;19927;-68
2022/12/18 12:19:58;;;;;;;;;;;0.00;99.90;;;;;;4919943;29;20386;-70
2022/12/18 12:22:31;;;;;;;;;;;0.00;99.90;;;;;;4917658;29;19927;-68
2022/12/18 12:25:03;;;;;;;;;;;0.10;99.90;;;;;;4917943;29;20386;-70
2022/12/18 12:27:37;;;;;;;;;;;0.10;99.90;;;;;;4923283;29;20030;-70
2022/12/18 12:30:06;;;;;;;;;;;0.20;99.90;;;;;;4919683;29;19935;-69
2022/12/18 12:32:39;;;;;;;;;;;0.30;99.90;;;;;;4920123;29;19927;-70
2022/12/18 12:35:14;;;;;;;;;;;0.40;99.90;;;;;;4920615;29;19939;-69
2022/12/18 12:37:47;;;;;;;;;;;0.50;99.90;;;;;;4923069;29;19934;-68
2022/12/18 12:40:17;;;;;;;;;;;0.60;99.90;;;;;;4921657;29;19942;-69
2022/12/18 12:45:35;;;;;;;;;;;0.80;99.90;;;;;;4921074;29;19950;-69
2022/12/18 12:48:03;;;;;;;;;;;0.90;99.90;;;;;;4924644;29;19931;-68
2022/12/18 12:50:34;;;;;;;;;;;0.80;99.90;;;;;;4920254;29;19931;-68
2022/12/18 12:53:01;;;;;;;;;;;0.70;99.90;;;;;;4921446;29;19981;-69
2022/12/18 12:55:29;;;;;;;;;;;0.70;99.90;;;;;;4917601;29;19927;-69
2022/12/18 12:58:00;;;;;;;;;;;0.70;99.90;;;;;;4922224;29;19927;-69
2022/12/18 13:00:31;;;;;;;;;;;0.70;99.90;;;;;;4922358;29;19982;-68
2022/12/18 13:03:00;;;;;;;;;;;0.70;99.90;;;;;;4918132;29;19938;-67
2022/12/18 13:05:29;;;;;;;;;;;0.60;99.90;;;;;;4918254;29;19973;-68
2022/12/18 13:07:58;;;;;;;;;;;0.60;99.90;;;;;;4922363;29;19938;-69
2022/12/18 13:10:27;;;;;;;;;;;0.60;99.90;;;;;;4928120;29;19937;-70
2022/12/18 13:12:56;;;;;;;;;;;0.60;99.90;;;;;;4912460;29;20391;-69
2022/12/18 13:15:26;;;;;;;;;;;0.60;99.90;;;;;;4912228;29;19926;-69
2022/12/18 13:18:15;;;;;;;;;;;0.50;99.90;;;;;;4927120;29;19927;-71
2022/12/18 13:20:43;;;;;;;;;;;0.50;99.90;;;;;;4925818;29;19927;-69
2022/12/18 13:23:30;;;;;;;;;;;0.50;99.90;;;;;;4921307;29;19935;-70
2022/12/18 13:25:57;;;;;;;;;;;0.50;99.90;;;;;;4905239;29;20271;-69
2022/12/18 13:28:25;;;;;;;;;;;0.40;99.90;;;;;;4915825;29;19931;-68
2022/12/18 13:30:54;;;;;;;;;;;0.40;99.90;;;;;;4908545;29;19966;-70
2022/12/18 13:33:49;;;;;;;;;;;0.30;99.90;;;;;;4909929;29;19935;-69
2022/12/18 13:36:30;;;;;;;;;;;0.30;99.90;;;;;;4924234;29;19931;-69
2022/12/18 13:39:11;;;;;;;;;;;0.30;99.90;;;;;;4924967;29;20022;-71
2022/12/18 13:41:38;;;;;;;;;;;0.30;99.90;;;;;;4919723;29;19942;-71
2022/12/18 13:44:11;;;;;;;;;;;0.20;99.90;;;;;;4921310;29;19931;-70
2022/12/18 13:46:44;;;;;;;;;;;0.20;99.90;;;;;;4925748;29;19927;-71
2022/12/18 13:49:20;;;;;;;;;;;0.10;99.90;;;;;;4924537;29;19926;-69
2022/12/18 13:51:48;;;;;;;;;;;0.10;99.90;;;;;;4917134;29;20002;-70
2022/12/18 13:54:19;;;;;;;;;;;0.00;99.90;;;;;;4922992;29;19944;-71
2022/12/18 13:56:47;;;;;;;;;;;0.00;99.90;;;;;;4920901;29;19927;-71
2022/12/18 13:59:19;;;;;;;;;;;-0.10;99.90;;;;;;4913780;29;20462;-69
2022/12/18 14:01:48;;;;;;;;;;;-0.10;99.90;;;;;;4918281;29;20350;-70
2022/12/18 14:04:23;;;;;;;;;;;-0.10;99.90;;;;;;4918623;29;19990;-69
2022/12/18 14:06:51;;;;;;;;;;;-0.20;99.90;;;;;;4920441;29;20398;-68
2022/12/18 14:09:20;;;;;;;;;;;-0.20;99.90;;;;;;4924878;29;19927;-70
2022/12/18 14:11:48;;;;;;;;;;;-0.20;99.90;;;;;;4919913;29;19942;-68
2022/12/18 14:14:15;;;;;;;;;;;-0.30;99.90;;;;;;4920492;29;19946;-69
2022/12/18 14:16:42;;;;;;;;;;;-0.30;99.90;;;;;;4922026;29;19930;-69
2022/12/18 14:19:13;;;;;;;;;;;-0.30;99.90;;;;;;4917511;29;19930;-71
2022/12/18 14:21:39;;;;;;;;;;;-0.30;99.90;;;;;;4919103;29;19933;-70
2022/12/18 14:24:13;;;;;;;;;;;-0.30;99.90;;;;;;4922050;29;19931;-69
2022/12/18 14:26:39;;;;;;;;;;;-0.30;99.90;;;;;;4919919;29;19928;-71
2022/12/18 14:29:19;;;;;;;;;;;-0.30;99.90;;;;;;4918034;29;20381;-71
2022/12/18 14:31:46;;;;;;;;;;;-0.30;99.90;;;;;;4923830;29;19927;-70
2022/12/18 14:34:17;;;;;;;;;;;-0.30;99.90;;;;;;4922380;29;19927;-71
2022/12/18 14:36:52;;;;;;;;;;;-0.30;99.90;;;;;;4924241;29;19931;-69
2022/12/18 14:39:19;;;;;;;;;;;-0.30;99.90;;;;;;4924170;29;19927;-69
2022/12/18 14:41:46;;;;;;;;;;;-0.40;99.90;;;;;;4916152;29;19927;-72
2022/12/18 14:44:13;;;;;;;;;;;-0.40;99.90;;;;;;4925196;29;19991;-70
2022/12/18 14:46:44;;;;;;;;;;;-0.40;99.90;;;;;;4927195;29;19926;-70
2022/12/18 14:49:20;;;;;;;;;;;-0.50;99.90;;;;;;4925452;29;19927;-70
2022/12/18 14:51:48;;;;;;;;;;;-0.50;99.90;;;;;;4920516;29;19928;-72
2022/12/18 14:54:16;;;;;;;;;;;-0.50;99.90;;;;;;4925987;29;20296;-71
2022/12/18 14:56:45;;;;;;;;;;;-0.50;99.90;;;;;;4923238;29;19931;-70
2022/12/18 14:59:15;;;;;;;;;;;-0.50;99.90;;;;;;4917940;29;19931;-69
2022/12/18 15:01:46;;;;;;;;;;;-0.50;99.90;;;;;;4924320;29;19957;-70
2022/12/18 15:04:24;;;;;;;;;;;-0.60;99.90;;;;;;4923633;29;20012;-70
2022/12/18 15:07:03;;;;;;;;;;;-0.60;99.90;;;;;;4923089;29;19946;-70
2022/12/18 15:09:29;;;;;;;;;;;-0.60;99.90;;;;;;4919635;29;19930;-69
2022/12/18 15:11:57;;;;;;;;;;;-0.60;99.90;;;;;;4921542;29;19930;-69
2022/12/18 15:14:34;;;;;;;;;;;-0.70;99.90;;;;;;4919217;29;19934;-70
2022/12/18 15:17:02;;;;;;;;;;;-0.70;99.90;;;;;;4921804;29;20038;-71
2022/12/18 15:19:35;;;;;;;;;;;-0.80;99.90;;;;;;4925607;29;19955;-70
2022/12/18 15:22:02;;;;;;;;;;;-0.80;99.90;;;;;;4922198;29;19935;-70
2022/12/18 15:24:31;;;;;;;;;;;-0.80;99.90;;;;;;4918204;29;19978;-70
2022/12/18 15:26:58;;;;;;;;;;;-0.80;99.90;;;;;;4915039;29;19974;-70
2022/12/18 15:29:26;;;;;;;;;;;-0.80;99.90;;;;;;4919754;29;19983;-70
2022/12/18 15:32:00;;;;;;;;;;;-0.80;99.90;;;;;;4904678;29;19931;-69
2022/12/18 15:34:27;;;;;;;;;;;-0.90;99.90;;;;;;4908793;29;19931;-70
2022/12/18 15:36:55;;;;;;;;;;;-0.90;99.90;;;;;;4914782;29;19931;-70
2022/12/18 15:39:22;;;;;;;;;;;-0.90;99.90;;;;;;4919555;29;20500;-70
2022/12/18 15:44:33;;;;;;;;;;;-1.00;99.90;;;;;;4918418;29;20457;-69
2022/12/18 15:47:00;;;;;;;;;;;-1.00;99.90;;;;;;4917132;29;19931;-69
2022/12/18 15:49:27;;;;;;;;;;;-1.00;99.90;;;;;;4925706;29;19931;-69
2022/12/18 15:51:54;;;;;;;;;;;-1.00;99.90;;;;;;4916592;29;19934;-68
2022/12/18 15:57:22;;;;;;;;;;;-1.00;99.90;;;;;;4912996;29;20383;-69
2022/12/18 15:57:25;;;;;;;;;;;-1.00;99.90;;;;;;4916550;29;19927;-70
2022/12/18 15:59:52;;;;;;;;;;;-1.00;99.90;;;;;;4918274;29;19927;-71
2022/12/18 16:02:20;;;;;;;;;;;-1.10;99.90;;;;;;4913842;29;20501;-70
2022/12/18 16:04:46;;;;;;;;;;;-1.10;99.90;;;;;;4915016;29;20469;-70
2022/12/18 16:07:13;;;;;;;;;;;-1.20;99.90;;;;;;4916309;29;19927;-70
2022/12/18 16:09:41;;;;;;;;;;;-1.20;99.90;;;;;;4921095;29;19934;-69
2022/12/18 16:12:12;;;;;;;;;;;-1.10;99.90;;;;;;4924340;29;19934;-70
2022/12/18 16:14:39;;;;;;;;;;;-1.10;99.90;;;;;;4922210;29;19928;-69
2022/12/18 16:17:09;;;;;;;;;;;-1.10;99.90;;;;;;4943821;23;20426;-67
2022/12/18 16:19:36;;;;;;;;;;;-1.10;99.90;;;;;;4932080;29;19969;-67
2022/12/18 16:22:02;;;;;;;;;;;-1.10;99.90;;;;;;4933208;29;20355;-67
2022/12/18 16:24:30;;;;;;;;;;;-1.10;99.90;;;;;;4930976;29;19983;-67
2022/12/18 16:26:59;;;;;;;;;;;-1.10;99.90;;;;;;4927701;29;20029;-67
2022/12/18 16:29:27;;;;;;;;;;;-1.20;99.90;;;;;;4930506;29;19927;-66
2022/12/18 16:31:53;;;;;;;;;;;-1.20;99.90;;;;;;4923694;29;20001;-67
2022/12/18 16:34:22;;;;;;;;;;;-1.20;99.90;;;;;;4941654;29;19927;-69
2022/12/18 16:36:48;;;;;;;;;;;-1.20;99.90;;;;;;4932408;29;19974;-70
2022/12/18 16:39:15;;;;;;;;;;;-1.20;99.90;;;;;;4930584;29;19935;-70
2022/12/18 16:41:42;;;;;;;;;;;-1.20;99.90;;;;;;4929353;29;19966;-69
2022/12/18 16:44:10;;;;;;;;;;;-1.20;99.90;;;;;;4933154;29;19927;-69
2022/12/18 16:46:37;;;;;;;;;;;-1.20;99.90;;;;;;4929188;29;20417;-67
2022/12/18 16:49:04;;;;;;;;;;;-1.20;99.90;;;;;;4932907;29;19934;-69
2022/12/18 16:51:30;;;;;;;;;;;-1.20;99.90;;;;;;4933397;29;19930;-66
2022/12/18 16:53:57;;;;;;;;;;;-1.20;99.90;;;;;;4930961;29;19931;-67
2022/12/18 16:56:24;;;;;;;;;;;-1.20;99.90;;;;;;4933027;29;19927;-67
2022/12/18 16:58:51;;;;;;;;;;;-1.20;99.90;;;;;;4933191;29;19931;-67
2022/12/18 17:01:20;;;;;;;;;;;-1.10;99.90;;;;;;4933110;29;19927;-67
2022/12/18 17:03:51;;;;;;;;;;;-1.10;99.90;;;;;;4930677;29;19930;-68
2022/12/18 17:06:18;;;;;;;;;;;-1.10;99.90;;;;;;4931877;29;19926;-68
2022/12/18 17:08:45;;;;;;;;;;;-1.00;99.90;;;;;;4933358;29;19927;-68
2022/12/18 17:11:11;;;;;;;;;;;-1.00;99.90;;;;;;4931102;28;19930;-66
2022/12/18 17:13:38;;;;;;;;;;;-0.90;99.90;;;;;;4927729;29;20343;-67
2022/12/18 17:16:06;;;;;;;;;;;-1.00;99.90;;;;;;4927750;28;19926;-67
2022/12/18 17:18:34;;;;;;;;;;;-1.10;99.90;;;;;;4926943;29;19927;-67
2022/12/18 17:21:01;;;;;;;;;;;-1.10;99.90;;;;;;4933121;29;19927;-67
2022/12/18 17:23:28;;;;;;;;;;;-1.10;99.90;;;;;;4932187;29;19927;-67
2022/12/18 17:25:56;;;;;;;;;;;-1.20;99.90;;;;;;4930395;29;19927;-67
2022/12/18 17:28:23;;;;;;;;;;;-1.20;99.90;;;;;;4930424;29;20361;-67
2022/12/18 17:30:49;;;;;;;;;;;-1.20;99.90;;;;;;4932837;29;19930;-67
2022/12/18 17:33:16;;;;;;;;;;;-1.20;99.90;;;;;;4921086;29;19943;-68
2022/12/18 17:35:44;;;;;;;;;;;-1.20;99.90;;;;;;4920331;29;19975;-69
2022/12/18 17:38:11;;;;;;;;;;;-1.20;99.90;;;;;;4924405;29;19963;-67
2022/12/18 17:40:39;;;;;;;;;;;-1.20;99.90;;;;;;4925172;29;19930;-67
2022/12/18 17:43:06;;;;;;;;;;;-1.20;99.90;;;;;;4927094;29;19927;-70
2022/12/18 17:45:34;;;;;;;;;;;-1.10;99.90;;;;;;4920631;29;19930;-69
2022/12/18 17:48:01;;;;;;;;;;;-1.10;99.90;;;;;;4929138;29;19946;-67
2022/12/18 17:50:28;;;;;;;;;;;-1.10;99.90;;;;;;4926184;29;19934;-70
2022/12/18 17:52:57;;;;;;;;;;;-1.10;99.90;;;;;;4928489;29;19950;-66
2022/12/18 17:56:50;;;;;;;;;;;-1.00;99.90;;;;;;4887144;28;90791;-77
2022/12/18 17:59:16;;;;;;;;;;;-1.00;99.90;;;;;;4978493;28;20360;-68
2022/12/18 18:01:43;;;;;;;;;;;-1.00;99.90;;;;;;5043513;28;19925;-68
2022/12/18 18:04:10;;;;;;;;;;;-1.00;99.90;;;;;;5041366;28;20032;-69
2022/12/18 18:06:36;;;;;;;;;;;-1.00;99.90;;;;;;5048656;28;19926;-69
2022/12/18 18:09:03;;;;;;;;;;;-0.90;99.90;;;;;;5042780;28;19925;-69
2022/12/18 18:14:16;;;;;;;;;;;-0.90;99.90;;;;;;5036768;28;19922;-68
2022/12/18 18:16:44;;;;;;;;;;;-0.80;99.90;;;;;;5051805;28;19925;-69
2022/12/18 18:19:12;;;;;;;;;;;-0.80;99.90;;;;;;5038127;28;19968;-68
2022/12/18 18:21:40;;;;;;;;;;;-0.80;99.90;;;;;;5032738;28;19961;-69
2022/12/18 18:24:06;;;;;;;;;;;-0.70;99.90;;;;;;5036104;28;20331;-69
2022/12/18 18:26:34;;;;;;;;;;;-0.70;99.90;;;;;;5034286;28;20028;-69
2022/12/18 18:29:01;;;;;;;;;;;-0.70;99.90;;;;;;5053844;28;19926;-71
2022/12/18 18:31:30;;;;;;;;;;;-0.60;99.90;;;;;;5034210;28;19952;-73
2022/12/18 18:33:57;;;;;;;;;;;-0.60;99.90;;;;;;5037457;28;20023;-69
2022/12/18 18:36:24;;;;;;;;;;;-0.60;99.90;;;;;;5038364;28;19987;-69
2022/12/18 18:38:51;;;;;;;;;;;-0.60;99.90;;;;;;5048857;28;19988;-69
2022/12/18 18:41:18;;;;;;;;;;;-0.60;99.90;;;;;;5041071;28;19949;-69
2022/12/18 18:43:45;;;;;;;;;;;-0.50;99.90;;;;;;5032879;28;19926;-69
2022/12/18 18:46:13;;;;;;;;;;;-0.50;99.90;;;;;;5038646;28;19929;-69